sensor_id;sensor_type;location;lat;lon;timestamp;P1;durP1;ratioP1;P2;durP2;ratioP2
24161;SDS011;12318;51.262;7.066;2023-05-23T00:00:54;25.15;;;20.17;;
24161;SDS011;12318;51.262;7.066;2023-05-23T00:03:22;27.50;;;20.23;;
24161;SDS011;12318;51.262;7.066;2023-05-23T00:05:48;24.95;;;19.05;;
24161;SDS011;12318;51.262;7.066;2023-05-23T00:08:15;23.63;;;17.27;;
24161;SDS011;12318;51.262;7.066;2023-05-23T00:10:44;24.67;;;16.40;;
24161;SDS011;12318;51.262;7.066;2023-05-23T00:13:10;20.88;;;16.63;;
24161;SDS011;12318;51.262;7.066;2023-05-23T00:15:42;21.90;;;16.13;;
24161;SDS011;12318;51.262;7.066;2023-05-23T00:18:11;20.23;;;15.80;;
24161;SDS011;12318;51.262;7.066;2023-05-23T00:20:37;18.35;;;14.07;;
24161;SDS011;12318;51.262;7.066;2023-05-23T00:23:08;18.43;;;13.67;;
24161;SDS011;12318;51.262;7.066;2023-05-23T00:25:43;17.83;;;13.68;;
24161;SDS011;12318;51.262;7.066;2023-05-23T00:28:12;15.02;;;12.98;;
24161;SDS011;12318;51.262;7.066;2023-05-23T00:30:38;17.13;;;13.05;;
24161;SDS011;12318;51.262;7.066;2023-05-23T00:33:07;22.55;;;15.32;;
24161;SDS011;12318;51.262;7.066;2023-05-23T00:35:33;20.42;;;14.43;;
24161;SDS011;12318;51.262;7.066;2023-05-23T00:37:58;18.58;;;15.00;;
24161;SDS011;12318;51.262;7.066;2023-05-23T00:40:26;20.98;;;15.15;;
24161;SDS011;12318;51.262;7.066;2023-05-23T00:42:54;17.48;;;15.50;;
24161;SDS011;12318;51.262;7.066;2023-05-23T00:45:20;21.30;;;16.42;;
24161;SDS011;12318;51.262;7.066;2023-05-23T00:47:46;24.23;;;17.15;;
24161;SDS011;12318;51.262;7.066;2023-05-23T00:50:16;28.80;;;19.77;;
24161;SDS011;12318;51.262;7.066;2023-05-23T00:52:46;25.23;;;19.80;;
24161;SDS011;12318;51.262;7.066;2023-05-23T00:55:15;25.67;;;21.17;;
24161;SDS011;12318;51.262;7.066;2023-05-23T00:57:41;26.83;;;22.40;;
24161;SDS011;12318;51.262;7.066;2023-05-23T01:00:09;29.05;;;25.80;;
24161;SDS011;12318;51.262;7.066;2023-05-23T01:02:41;32.35;;;26.60;;
24161;SDS011;12318;51.262;7.066;2023-05-23T01:05:09;31.73;;;27.95;;
24161;SDS011;12318;51.262;7.066;2023-05-23T01:07:39;29.92;;;25.20;;
24161;SDS011;12318;51.262;7.066;2023-05-23T01:10:15;27.48;;;23.48;;
24161;SDS011;12318;51.262;7.066;2023-05-23T01:18:37;17.67;;;15.73;;
24161;SDS011;12318;51.262;7.066;2023-05-23T01:29:13;12.55;;;8.82;;
24161;SDS011;12318;51.262;7.066;2023-05-23T01:31:48;9.27;;;7.93;;
24161;SDS011;12318;51.262;7.066;2023-05-23T01:34:17;10.73;;;6.53;;
24161;SDS011;12318;51.262;7.066;2023-05-23T01:36:43;7.97;;;5.30;;
24161;SDS011;12318;51.262;7.066;2023-05-23T01:39:09;12.25;;;5.40;;
24161;SDS011;12318;51.262;7.066;2023-05-23T01:41:36;7.03;;;5.07;;
24161;SDS011;12318;51.262;7.066;2023-05-23T01:44:02;6.57;;;4.70;;
24161;SDS011;12318;51.262;7.066;2023-05-23T01:46:29;8.27;;;4.57;;
24161;SDS011;12318;51.262;7.066;2023-05-23T01:48:56;5.72;;;4.32;;
24161;SDS011;12318;51.262;7.066;2023-05-23T01:51:23;6.90;;;4.57;;
24161;SDS011;12318;51.262;7.066;2023-05-23T01:53:51;5.75;;;4.40;;
24161;SDS011;12318;51.262;7.066;2023-05-23T01:56:18;7.80;;;4.50;;
24161;SDS011;12318;51.262;7.066;2023-05-23T01:58:45;6.85;;;4.82;;
24161;SDS011;12318;51.262;7.066;2023-05-23T02:01:11;26.45;;;5.45;;
24161;SDS011;12318;51.262;7.066;2023-05-23T02:03:37;6.20;;;5.60;;
24161;SDS011;12318;51.262;7.066;2023-05-23T02:06:03;7.43;;;6.07;;
24161;SDS011;12318;51.262;7.066;2023-05-23T02:08:29;10.77;;;8.80;;
24161;SDS011;12318;51.262;7.066;2023-05-23T02:10:54;11.82;;;10.63;;
24161;SDS011;12318;51.262;7.066;2023-05-23T02:13:20;13.15;;;10.85;;
24161;SDS011;12318;51.262;7.066;2023-05-23T02:15:46;12.02;;;10.60;;
24161;SDS011;12318;51.262;7.066;2023-05-23T02:18:12;14.70;;;10.52;;
24161;SDS011;12318;51.262;7.066;2023-05-23T02:20:38;13.95;;;11.00;;
24161;SDS011;12318;51.262;7.066;2023-05-23T02:23:05;18.48;;;11.23;;
24161;SDS011;12318;51.262;7.066;2023-05-23T02:25:31;13.85;;;12.13;;
24161;SDS011;12318;51.262;7.066;2023-05-23T02:27:56;15.38;;;12.55;;
24161;SDS011;12318;51.262;7.066;2023-05-23T02:30:22;15.75;;;12.40;;
24161;SDS011;12318;51.262;7.066;2023-05-23T02:32:48;16.52;;;11.30;;
24161;SDS011;12318;51.262;7.066;2023-05-23T02:35:13;12.93;;;11.07;;
24161;SDS011;12318;51.262;7.066;2023-05-23T02:37:41;10.15;;;9.07;;
24161;SDS011;12318;51.262;7.066;2023-05-23T02:40:09;10.48;;;8.43;;
24161;SDS011;12318;51.262;7.066;2023-05-23T02:42:36;12.05;;;8.82;;
24161;SDS011;12318;51.262;7.066;2023-05-23T02:45:10;11.30;;;8.77;;
24161;SDS011;12318;51.262;7.066;2023-05-23T02:47:39;10.80;;;8.40;;
24161;SDS011;12318;51.262;7.066;2023-05-23T02:50:05;16.23;;;11.50;;
24161;SDS011;12318;51.262;7.066;2023-05-23T02:52:31;15.77;;;12.40;;
24161;SDS011;12318;51.262;7.066;2023-05-23T02:55:00;15.05;;;11.00;;
24161;SDS011;12318;51.262;7.066;2023-05-23T02:57:26;18.08;;;11.10;;
24161;SDS011;12318;51.262;7.066;2023-05-23T02:59:51;18.27;;;11.50;;
24161;SDS011;12318;51.262;7.066;2023-05-23T03:02:17;18.70;;;12.85;;
24161;SDS011;12318;51.262;7.066;2023-05-23T03:04:43;18.20;;;11.98;;
24161;SDS011;12318;51.262;7.066;2023-05-23T03:07:09;17.55;;;12.05;;
24161;SDS011;12318;51.262;7.066;2023-05-23T03:09:36;16.02;;;11.10;;
24161;SDS011;12318;51.262;7.066;2023-05-23T03:12:02;16.20;;;11.10;;
24161;SDS011;12318;51.262;7.066;2023-05-23T03:14:30;21.02;;;11.70;;
24161;SDS011;12318;51.262;7.066;2023-05-23T03:16:56;16.48;;;11.68;;
24161;SDS011;12318;51.262;7.066;2023-05-23T03:19:24;17.85;;;11.45;;
24161;SDS011;12318;51.262;7.066;2023-05-23T03:21:50;28.13;;;11.13;;
24161;SDS011;12318;51.262;7.066;2023-05-23T03:24:16;16.33;;;9.98;;
24161;SDS011;12318;51.262;7.066;2023-05-23T03:26:42;13.45;;;9.40;;
24161;SDS011;12318;51.262;7.066;2023-05-23T03:29:09;14.57;;;9.45;;
24161;SDS011;12318;51.262;7.066;2023-05-23T03:31:35;14.38;;;8.95;;
24161;SDS011;12318;51.262;7.066;2023-05-23T03:34:04;14.63;;;8.43;;
24161;SDS011;12318;51.262;7.066;2023-05-23T03:36:30;16.38;;;8.25;;
24161;SDS011;12318;51.262;7.066;2023-05-23T03:38:59;15.30;;;8.07;;
24161;SDS011;12318;51.262;7.066;2023-05-23T03:41:25;9.77;;;7.25;;
24161;SDS011;12318;51.262;7.066;2023-05-23T03:43:54;14.57;;;8.40;;
24161;SDS011;12318;51.262;7.066;2023-05-23T03:46:20;14.23;;;8.45;;
24161;SDS011;12318;51.262;7.066;2023-05-23T03:48:48;13.95;;;8.88;;
24161;SDS011;12318;51.262;7.066;2023-05-23T03:51:15;13.90;;;9.60;;
24161;SDS011;12318;51.262;7.066;2023-05-23T03:53:44;18.77;;;11.43;;
24161;SDS011;12318;51.262;7.066;2023-05-23T03:56:10;19.02;;;11.38;;
24161;SDS011;12318;51.262;7.066;2023-05-23T03:58:35;14.70;;;9.45;;
24161;SDS011;12318;51.262;7.066;2023-05-23T04:01:01;14.30;;;8.93;;
24161;SDS011;12318;51.262;7.066;2023-05-23T04:03:27;12.85;;;8.60;;
24161;SDS011;12318;51.262;7.066;2023-05-23T04:05:57;13.13;;;7.28;;
24161;SDS011;12318;51.262;7.066;2023-05-23T04:08:26;12.43;;;6.45;;
24161;SDS011;12318;51.262;7.066;2023-05-23T04:10:53;10.48;;;6.85;;
24161;SDS011;12318;51.262;7.066;2023-05-23T04:13:19;11.05;;;6.43;;
24161;SDS011;12318;51.262;7.066;2023-05-23T04:15:46;9.30;;;6.68;;
24161;SDS011;12318;51.262;7.066;2023-05-23T04:18:12;10.63;;;7.35;;
24161;SDS011;12318;51.262;7.066;2023-05-23T04:20:39;15.18;;;8.18;;
24161;SDS011;12318;51.262;7.066;2023-05-23T04:23:05;16.00;;;7.93;;
24161;SDS011;12318;51.262;7.066;2023-05-23T04:25:31;20.00;;;9.93;;
24161;SDS011;12318;51.262;7.066;2023-05-23T04:27:58;15.15;;;9.20;;
24161;SDS011;12318;51.262;7.066;2023-05-23T04:30:25;15.02;;;10.25;;
24161;SDS011;12318;51.262;7.066;2023-05-23T04:32:51;16.52;;;10.85;;
24161;SDS011;12318;51.262;7.066;2023-05-23T04:35:17;17.83;;;10.02;;
24161;SDS011;12318;51.262;7.066;2023-05-23T04:37:43;15.02;;;9.52;;
24161;SDS011;12318;51.262;7.066;2023-05-23T04:40:09;15.65;;;10.00;;
24161;SDS011;12318;51.262;7.066;2023-05-23T04:42:37;20.27;;;10.80;;
24161;SDS011;12318;51.262;7.066;2023-05-23T04:45:09;14.02;;;9.60;;
24161;SDS011;12318;51.262;7.066;2023-05-23T04:47:35;14.25;;;9.57;;
24161;SDS011;12318;51.262;7.066;2023-05-23T04:50:01;14.27;;;9.98;;
24161;SDS011;12318;51.262;7.066;2023-05-23T04:52:28;15.55;;;9.43;;
24161;SDS011;12318;51.262;7.066;2023-05-23T04:54:54;18.20;;;9.90;;
24161;SDS011;12318;51.262;7.066;2023-05-23T04:57:20;16.75;;;9.65;;
24161;SDS011;12318;51.262;7.066;2023-05-23T04:59:46;18.30;;;10.88;;
24161;SDS011;12318;51.262;7.066;2023-05-23T05:02:12;18.00;;;9.98;;
24161;SDS011;12318;51.262;7.066;2023-05-23T05:04:38;16.95;;;10.10;;
24161;SDS011;12318;51.262;7.066;2023-05-23T05:07:03;20.45;;;9.30;;
24161;SDS011;12318;51.262;7.066;2023-05-23T05:09:29;16.85;;;9.52;;
24161;SDS011;12318;51.262;7.066;2023-05-23T05:11:56;17.42;;;9.30;;
24161;SDS011;12318;51.262;7.066;2023-05-23T05:14:23;14.88;;;9.20;;
24161;SDS011;12318;51.262;7.066;2023-05-23T05:16:51;21.55;;;8.55;;
24161;SDS011;12318;51.262;7.066;2023-05-23T05:19:18;20.02;;;10.40;;
24161;SDS011;12318;51.262;7.066;2023-05-23T05:21:45;15.07;;;10.95;;
24161;SDS011;12318;51.262;7.066;2023-05-23T05:24:11;16.98;;;11.73;;
24161;SDS011;12318;51.262;7.066;2023-05-23T05:26:37;23.48;;;12.35;;
24161;SDS011;12318;51.262;7.066;2023-05-23T05:29:03;23.23;;;13.48;;
24161;SDS011;12318;51.262;7.066;2023-05-23T05:31:28;19.55;;;13.43;;
24161;SDS011;12318;51.262;7.066;2023-05-23T05:33:54;22.20;;;12.35;;
24161;SDS011;12318;51.262;7.066;2023-05-23T05:36:20;20.23;;;11.98;;
24161;SDS011;12318;51.262;7.066;2023-05-23T05:38:46;18.55;;;11.45;;
24161;SDS011;12318;51.262;7.066;2023-05-23T05:41:12;20.63;;;11.65;;
24161;SDS011;12318;51.262;7.066;2023-05-23T05:43:38;19.02;;;10.82;;
24161;SDS011;12318;51.262;7.066;2023-05-23T05:46:04;19.33;;;11.60;;
24161;SDS011;12318;51.262;7.066;2023-05-23T05:48:30;18.15;;;10.40;;
24161;SDS011;12318;51.262;7.066;2023-05-23T05:50:56;21.20;;;13.77;;
24161;SDS011;12318;51.262;7.066;2023-05-23T05:53:21;25.83;;;14.13;;
24161;SDS011;12318;51.262;7.066;2023-05-23T05:55:47;22.73;;;14.00;;
24161;SDS011;12318;51.262;7.066;2023-05-23T05:58:13;23.85;;;15.00;;
24161;SDS011;12318;51.262;7.066;2023-05-23T06:00:39;22.55;;;13.85;;
24161;SDS011;12318;51.262;7.066;2023-05-23T06:03:06;21.33;;;14.27;;
24161;SDS011;12318;51.262;7.066;2023-05-23T06:05:33;21.52;;;14.55;;
24161;SDS011;12318;51.262;7.066;2023-05-23T06:08:00;23.10;;;14.60;;
24161;SDS011;12318;51.262;7.066;2023-05-23T06:10:26;21.20;;;14.63;;
24161;SDS011;12318;51.262;7.066;2023-05-23T06:12:52;23.58;;;14.75;;
24161;SDS011;12318;51.262;7.066;2023-05-23T06:15:17;25.52;;;15.60;;
24161;SDS011;12318;51.262;7.066;2023-05-23T06:17:45;22.00;;;16.58;;
24161;SDS011;12318;51.262;7.066;2023-05-23T06:20:11;21.27;;;15.20;;
24161;SDS011;12318;51.262;7.066;2023-05-23T06:22:37;23.25;;;14.70;;
24161;SDS011;12318;51.262;7.066;2023-05-23T06:25:03;24.48;;;15.10;;
24161;SDS011;12318;51.262;7.066;2023-05-23T06:27:31;22.58;;;13.25;;
24161;SDS011;12318;51.262;7.066;2023-05-23T06:29:56;21.40;;;12.60;;
24161;SDS011;12318;51.262;7.066;2023-05-23T06:32:22;18.75;;;12.05;;
24161;SDS011;12318;51.262;7.066;2023-05-23T06:34:48;18.75;;;11.32;;
24161;SDS011;12318;51.262;7.066;2023-05-23T06:37:14;21.15;;;12.90;;
24161;SDS011;12318;51.262;7.066;2023-05-23T06:39:39;20.55;;;11.93;;
24161;SDS011;12318;51.262;7.066;2023-05-23T06:42:05;19.23;;;11.43;;
24161;SDS011;12318;51.262;7.066;2023-05-23T06:44:31;17.88;;;11.23;;
24161;SDS011;12318;51.262;7.066;2023-05-23T06:46:57;13.25;;;9.43;;
24161;SDS011;12318;51.262;7.066;2023-05-23T06:49:23;15.57;;;8.50;;
24161;SDS011;12318;51.262;7.066;2023-05-23T06:51:49;17.58;;;8.40;;
24161;SDS011;12318;51.262;7.066;2023-05-23T06:54:16;14.60;;;8.93;;
24161;SDS011;12318;51.262;7.066;2023-05-23T06:56:42;13.98;;;8.38;;
24161;SDS011;12318;51.262;7.066;2023-05-23T06:59:08;13.57;;;8.88;;
24161;SDS011;12318;51.262;7.066;2023-05-23T07:01:33;18.17;;;9.27;;
24161;SDS011;12318;51.262;7.066;2023-05-23T07:03:59;14.60;;;9.48;;
24161;SDS011;12318;51.262;7.066;2023-05-23T07:06:25;14.52;;;9.57;;
24161;SDS011;12318;51.262;7.066;2023-05-23T07:08:53;12.15;;;8.88;;
24161;SDS011;12318;51.262;7.066;2023-05-23T07:11:22;15.82;;;8.70;;
24161;SDS011;12318;51.262;7.066;2023-05-23T07:13:48;17.00;;;8.20;;
24161;SDS011;12318;51.262;7.066;2023-05-23T07:16:14;12.57;;;7.65;;
24161;SDS011;12318;51.262;7.066;2023-05-23T07:18:40;15.00;;;7.63;;
24161;SDS011;12318;51.262;7.066;2023-05-23T07:21:06;28.65;;;8.15;;
24161;SDS011;12318;51.262;7.066;2023-05-23T07:23:31;13.48;;;7.18;;
24161;SDS011;12318;51.262;7.066;2023-05-23T07:26:00;15.77;;;8.30;;
24161;SDS011;12318;51.262;7.066;2023-05-23T07:28:26;17.50;;;8.52;;
24161;SDS011;12318;51.262;7.066;2023-05-23T07:30:53;15.52;;;7.93;;
24161;SDS011;12318;51.262;7.066;2023-05-23T07:33:19;14.95;;;7.13;;
24161;SDS011;12318;51.262;7.066;2023-05-23T07:35:45;12.05;;;7.18;;
24161;SDS011;12318;51.262;7.066;2023-05-23T07:38:11;17.08;;;8.23;;
24161;SDS011;12318;51.262;7.066;2023-05-23T07:40:36;15.23;;;7.82;;
24161;SDS011;12318;51.262;7.066;2023-05-23T07:43:04;11.77;;;7.93;;
24161;SDS011;12318;51.262;7.066;2023-05-23T07:45:29;14.77;;;8.10;;
24161;SDS011;12318;51.262;7.066;2023-05-23T07:47:55;13.50;;;8.32;;
24161;SDS011;12318;51.262;7.066;2023-05-23T07:50:21;16.30;;;8.32;;
24161;SDS011;12318;51.262;7.066;2023-05-23T07:52:47;18.55;;;8.70;;
24161;SDS011;12318;51.262;7.066;2023-05-23T07:55:15;16.02;;;8.18;;
24161;SDS011;12318;51.262;7.066;2023-05-23T07:57:41;14.75;;;7.45;;
24161;SDS011;12318;51.262;7.066;2023-05-23T08:00:07;15.75;;;7.55;;
24161;SDS011;12318;51.262;7.066;2023-05-23T08:02:34;13.57;;;7.35;;
24161;SDS011;12318;51.262;7.066;2023-05-23T08:05:00;13.95;;;7.22;;
24161;SDS011;12318;51.262;7.066;2023-05-23T08:07:25;16.38;;;6.97;;
24161;SDS011;12318;51.262;7.066;2023-05-23T08:09:51;14.10;;;7.28;;
24161;SDS011;12318;51.262;7.066;2023-05-23T08:12:17;14.80;;;6.75;;
24161;SDS011;12318;51.262;7.066;2023-05-23T08:14:43;15.07;;;6.57;;
24161;SDS011;12318;51.262;7.066;2023-05-23T08:17:09;13.82;;;6.68;;
24161;SDS011;12318;51.262;7.066;2023-05-23T08:19:36;12.57;;;6.45;;
24161;SDS011;12318;51.262;7.066;2023-05-23T08:22:02;13.73;;;6.22;;
24161;SDS011;12318;51.262;7.066;2023-05-23T08:24:29;15.93;;;6.70;;
24161;SDS011;12318;51.262;7.066;2023-05-23T08:26:55;16.08;;;8.07;;
24161;SDS011;12318;51.262;7.066;2023-05-23T08:29:21;19.23;;;8.07;;
24161;SDS011;12318;51.262;7.066;2023-05-23T08:31:46;16.60;;;9.02;;
24161;SDS011;12318;51.262;7.066;2023-05-23T08:34:12;19.90;;;9.35;;
24161;SDS011;12318;51.262;7.066;2023-05-23T08:36:39;26.73;;;11.57;;
24161;SDS011;12318;51.262;7.066;2023-05-23T08:39:07;22.95;;;10.13;;
24161;SDS011;12318;51.262;7.066;2023-05-23T08:41:33;20.38;;;9.63;;
24161;SDS011;12318;51.262;7.066;2023-05-23T08:43:59;23.77;;;9.23;;
24161;SDS011;12318;51.262;7.066;2023-05-23T08:46:26;20.95;;;9.05;;
24161;SDS011;12318;51.262;7.066;2023-05-23T08:48:52;26.83;;;10.13;;
24161;SDS011;12318;51.262;7.066;2023-05-23T08:51:26;19.50;;;9.20;;
24161;SDS011;12318;51.262;7.066;2023-05-23T08:53:52;14.80;;;7.68;;
24161;SDS011;12318;51.262;7.066;2023-05-23T08:56:20;15.50;;;7.22;;
24161;SDS011;12318;51.262;7.066;2023-05-23T08:58:49;12.30;;;7.03;;
24161;SDS011;12318;51.262;7.066;2023-05-23T09:01:17;14.10;;;6.70;;
24161;SDS011;12318;51.262;7.066;2023-05-23T09:03:44;16.45;;;6.65;;
24161;SDS011;12318;51.262;7.066;2023-05-23T09:06:10;16.33;;;7.18;;
24161;SDS011;12318;51.262;7.066;2023-05-23T09:08:36;14.80;;;6.60;;
24161;SDS011;12318;51.262;7.066;2023-05-23T09:11:02;12.52;;;6.40;;
24161;SDS011;12318;51.262;7.066;2023-05-23T09:13:30;14.68;;;6.60;;
24161;SDS011;12318;51.262;7.066;2023-05-23T09:15:59;16.13;;;5.97;;
24161;SDS011;12318;51.262;7.066;2023-05-23T09:21:01;15.07;;;7.13;;
24161;SDS011;12318;51.262;7.066;2023-05-23T09:23:30;14.60;;;7.55;;
24161;SDS011;12318;51.262;7.066;2023-05-23T09:26:08;20.08;;;9.93;;
24161;SDS011;12318;51.262;7.066;2023-05-23T09:28:35;27.58;;;12.07;;
24161;SDS011;12318;51.262;7.066;2023-05-23T09:31:03;33.13;;;13.68;;
24161;SDS011;12318;51.262;7.066;2023-05-23T09:33:43;31.77;;;14.30;;
24161;SDS011;12318;51.262;7.066;2023-05-23T09:36:13;26.58;;;12.90;;
24161;SDS011;12318;51.262;7.066;2023-05-23T09:38:41;29.65;;;12.93;;
24161;SDS011;12318;51.262;7.066;2023-05-23T09:41:08;20.35;;;11.68;;
24161;SDS011;12318;51.262;7.066;2023-05-23T09:43:39;26.92;;;12.05;;
24161;SDS011;12318;51.262;7.066;2023-05-23T09:46:13;23.30;;;11.35;;
24161;SDS011;12318;51.262;7.066;2023-05-23T09:48:39;22.48;;;10.93;;
24161;SDS011;12318;51.262;7.066;2023-05-23T09:51:16;14.63;;;9.75;;
24161;SDS011;12318;51.262;7.066;2023-05-23T09:53:45;22.40;;;10.00;;
24161;SDS011;12318;51.262;7.066;2023-05-23T09:56:11;26.65;;;10.02;;
24161;SDS011;12318;51.262;7.066;2023-05-23T09:58:39;18.45;;;9.85;;
24161;SDS011;12318;51.262;7.066;2023-05-23T10:01:09;18.98;;;8.85;;
24161;SDS011;12318;51.262;7.066;2023-05-23T10:03:39;19.20;;;8.38;;
24161;SDS011;12318;51.262;7.066;2023-05-23T10:06:36;17.85;;;8.20;;
24161;SDS011;12318;51.262;7.066;2023-05-23T10:09:02;19.55;;;7.75;;
24161;SDS011;12318;51.262;7.066;2023-05-23T10:13:59;16.83;;;7.63;;
24161;SDS011;12318;51.262;7.066;2023-05-23T10:19:13;16.42;;;7.85;;
24161;SDS011;12318;51.262;7.066;2023-05-23T10:22:16;16.60;;;7.55;;
24161;SDS011;12318;51.262;7.066;2023-05-23T10:24:43;16.38;;;8.02;;
24161;SDS011;12318;51.262;7.066;2023-05-23T10:27:10;18.38;;;7.88;;
24161;SDS011;12318;51.262;7.066;2023-05-23T10:29:37;15.60;;;8.30;;
24161;SDS011;12318;51.262;7.066;2023-05-23T10:32:03;16.67;;;7.72;;
24161;SDS011;12318;51.262;7.066;2023-05-23T10:37:09;17.23;;;7.22;;
24161;SDS011;12318;51.262;7.066;2023-05-23T10:42:26;18.48;;;7.30;;
24161;SDS011;12318;51.262;7.066;2023-05-23T10:45:22;13.85;;;7.28;;
24161;SDS011;12318;51.262;7.066;2023-05-23T10:47:49;16.45;;;7.60;;
24161;SDS011;12318;51.262;7.066;2023-05-23T10:50:29;18.73;;;8.35;;
24161;SDS011;12318;51.262;7.066;2023-05-23T10:53:01;21.65;;;9.10;;
24161;SDS011;12318;51.262;7.066;2023-05-23T10:55:32;25.65;;;10.63;;
24161;SDS011;12318;51.262;7.066;2023-05-23T10:58:08;27.70;;;10.52;;
24161;SDS011;12318;51.262;7.066;2023-05-23T11:06:00;24.58;;;9.15;;
24161;SDS011;12318;51.262;7.066;2023-05-23T11:08:34;24.25;;;9.10;;
24161;SDS011;12318;51.262;7.066;2023-05-23T11:11:02;18.23;;;8.30;;
24161;SDS011;12318;51.262;7.066;2023-05-23T11:16:30;22.15;;;8.80;;
24161;SDS011;12318;51.262;7.066;2023-05-23T11:21:43;12.48;;;6.68;;
24161;SDS011;12318;51.262;7.066;2023-05-23T11:24:11;16.92;;;7.07;;
24161;SDS011;12318;51.262;7.066;2023-05-23T11:26:37;15.00;;;5.95;;
24161;SDS011;12318;51.262;7.066;2023-05-23T11:29:03;18.77;;;6.72;;
24161;SDS011;12318;51.262;7.066;2023-05-23T11:31:36;13.80;;;6.03;;
24161;SDS011;12318;51.262;7.066;2023-05-23T11:34:02;13.98;;;6.22;;
24161;SDS011;12318;51.262;7.066;2023-05-23T11:36:29;15.68;;;5.72;;
24161;SDS011;12318;51.262;7.066;2023-05-23T11:38:55;14.45;;;6.55;;
24161;SDS011;12318;51.262;7.066;2023-05-23T11:41:26;13.60;;;5.47;;
24161;SDS011;12318;51.262;7.066;2023-05-23T11:43:51;16.73;;;6.20;;
24161;SDS011;12318;51.262;7.066;2023-05-23T11:46:17;14.45;;;6.10;;
24161;SDS011;12318;51.262;7.066;2023-05-23T11:48:47;13.45;;;6.15;;
24161;SDS011;12318;51.262;7.066;2023-05-23T11:51:13;17.13;;;6.90;;
24161;SDS011;12318;51.262;7.066;2023-05-23T11:53:40;13.75;;;5.47;;
24161;SDS011;12318;51.262;7.066;2023-05-23T11:56:06;16.10;;;5.47;;
24161;SDS011;12318;51.262;7.066;2023-05-23T11:58:37;13.95;;;6.28;;
24161;SDS011;12318;51.262;7.066;2023-05-23T12:03:30;15.65;;;6.30;;
24161;SDS011;12318;51.262;7.066;2023-05-23T12:05:57;13.25;;;5.55;;
24161;SDS011;12318;51.262;7.066;2023-05-23T12:08:23;11.52;;;5.35;;
24161;SDS011;12318;51.262;7.066;2023-05-23T12:10:58;19.67;;;6.00;;
24161;SDS011;12318;51.262;7.066;2023-05-23T12:13:27;11.63;;;4.95;;
24161;SDS011;12318;51.262;7.066;2023-05-23T12:16:01;14.75;;;5.47;;
24161;SDS011;12318;51.262;7.066;2023-05-23T12:18:30;14.60;;;5.50;;
24161;SDS011;12318;51.262;7.066;2023-05-23T12:21:00;14.00;;;5.15;;
24161;SDS011;12318;51.262;7.066;2023-05-23T12:23:29;13.57;;;5.07;;
24161;SDS011;12318;51.262;7.066;2023-05-23T12:25:56;13.60;;;4.78;;
24161;SDS011;12318;51.262;7.066;2023-05-23T12:28:35;12.00;;;4.50;;
24161;SDS011;12318;51.262;7.066;2023-05-23T12:33:41;8.77;;;4.50;;
24161;SDS011;12318;51.262;7.066;2023-05-23T12:36:09;11.90;;;4.53;;
24161;SDS011;12318;51.262;7.066;2023-05-23T12:38:38;12.85;;;3.92;;
24161;SDS011;12318;51.262;7.066;2023-05-23T12:41:18;12.65;;;3.92;;
24161;SDS011;12318;51.262;7.066;2023-05-23T12:43:48;11.15;;;3.72;;
24161;SDS011;12318;51.262;7.066;2023-05-23T12:46:16;9.05;;;3.72;;
24161;SDS011;12318;51.262;7.066;2023-05-23T12:48:41;16.38;;;4.40;;
24161;SDS011;12318;51.262;7.066;2023-05-23T12:51:07;16.50;;;4.13;;
24161;SDS011;12318;51.262;7.066;2023-05-23T12:53:33;15.85;;;4.15;;
24161;SDS011;12318;51.262;7.066;2023-05-23T12:55:58;11.50;;;4.10;;
24161;SDS011;12318;51.262;7.066;2023-05-23T12:58:24;13.65;;;4.10;;
24161;SDS011;12318;51.262;7.066;2023-05-23T13:00:50;10.75;;;3.28;;
24161;SDS011;12318;51.262;7.066;2023-05-23T13:03:16;12.10;;;3.17;;
24161;SDS011;12318;51.262;7.066;2023-05-23T13:05:42;9.63;;;3.58;;
24161;SDS011;12318;51.262;7.066;2023-05-23T13:08:08;13.15;;;3.10;;
24161;SDS011;12318;51.262;7.066;2023-05-23T13:10:36;13.15;;;3.45;;
24161;SDS011;12318;51.262;7.066;2023-05-23T13:13:02;12.63;;;3.72;;
24161;SDS011;12318;51.262;7.066;2023-05-23T13:15:28;7.32;;;2.88;;
24161;SDS011;12318;51.262;7.066;2023-05-23T13:17:54;15.27;;;3.42;;
24161;SDS011;12318;51.262;7.066;2023-05-23T13:20:20;8.32;;;3.45;;
24161;SDS011;12318;51.262;7.066;2023-05-23T13:22:46;16.38;;;4.47;;
24161;SDS011;12318;51.262;7.066;2023-05-23T13:25:13;13.65;;;4.25;;
24161;SDS011;12318;51.262;7.066;2023-05-23T13:27:38;14.40;;;4.05;;
24161;SDS011;12318;51.262;7.066;2023-05-23T13:30:04;14.70;;;4.72;;
24161;SDS011;12318;51.262;7.066;2023-05-23T13:32:32;18.42;;;4.20;;
24161;SDS011;12318;51.262;7.066;2023-05-23T13:34:58;12.88;;;3.80;;
24161;SDS011;12318;51.262;7.066;2023-05-23T13:37:23;12.25;;;3.90;;
24161;SDS011;12318;51.262;7.066;2023-05-23T13:39:49;12.93;;;3.88;;
24161;SDS011;12318;51.262;7.066;2023-05-23T13:42:15;13.40;;;4.20;;
24161;SDS011;12318;51.262;7.066;2023-05-23T13:44:41;17.40;;;3.90;;
24161;SDS011;12318;51.262;7.066;2023-05-23T13:47:12;11.48;;;3.28;;
24161;SDS011;12318;51.262;7.066;2023-05-23T13:49:39;13.43;;;3.40;;
24161;SDS011;12318;51.262;7.066;2023-05-23T13:52:06;16.92;;;3.40;;
24161;SDS011;12318;51.262;7.066;2023-05-23T13:54:32;14.18;;;3.47;;
24161;SDS011;12318;51.262;7.066;2023-05-23T13:56:59;22.35;;;4.90;;
24161;SDS011;12318;51.262;7.066;2023-05-23T13:59:25;13.68;;;4.10;;
24161;SDS011;12318;51.262;7.066;2023-05-23T14:01:51;14.52;;;3.88;;
24161;SDS011;12318;51.262;7.066;2023-05-23T14:04:17;12.70;;;3.20;;
24161;SDS011;12318;51.262;7.066;2023-05-23T14:06:43;9.48;;;3.05;;
24161;SDS011;12318;51.262;7.066;2023-05-23T14:09:09;13.15;;;3.65;;
24161;SDS011;12318;51.262;7.066;2023-05-23T14:11:36;16.65;;;4.05;;
24161;SDS011;12318;51.262;7.066;2023-05-23T14:14:02;16.30;;;3.88;;
24161;SDS011;12318;51.262;7.066;2023-05-23T14:16:29;15.93;;;3.63;;
24161;SDS011;12318;51.262;7.066;2023-05-23T14:18:55;12.65;;;3.75;;
24161;SDS011;12318;51.262;7.066;2023-05-23T14:21:20;14.07;;;4.10;;
24161;SDS011;12318;51.262;7.066;2023-05-23T14:23:48;16.25;;;3.63;;
24161;SDS011;12318;51.262;7.066;2023-05-23T14:26:14;9.60;;;3.05;;
24161;SDS011;12318;51.262;7.066;2023-05-23T14:28:40;12.95;;;3.40;;
24161;SDS011;12318;51.262;7.066;2023-05-23T14:31:05;17.80;;;3.83;;
24161;SDS011;12318;51.262;7.066;2023-05-23T14:33:31;15.38;;;3.92;;
24161;SDS011;12318;51.262;7.066;2023-05-23T14:35:57;13.55;;;4.10;;
24161;SDS011;12318;51.262;7.066;2023-05-23T14:38:23;11.75;;;3.53;;
24161;SDS011;12318;51.262;7.066;2023-05-23T14:40:49;10.85;;;3.50;;
24161;SDS011;12318;51.262;7.066;2023-05-23T14:43:15;12.02;;;3.88;;
24161;SDS011;12318;51.262;7.066;2023-05-23T14:45:41;13.63;;;3.80;;
24161;SDS011;12318;51.262;7.066;2023-05-23T14:48:08;11.68;;;3.40;;
24161;SDS011;12318;51.262;7.066;2023-05-23T14:50:33;11.90;;;3.45;;
24161;SDS011;12318;51.262;7.066;2023-05-23T14:53:00;17.23;;;3.67;;
24161;SDS011;12318;51.262;7.066;2023-05-23T14:55:31;14.05;;;3.50;;
24161;SDS011;12318;51.262;7.066;2023-05-23T14:57:57;13.07;;;3.63;;
24161;SDS011;12318;51.262;7.066;2023-05-23T15:00:23;13.00;;;4.00;;
24161;SDS011;12318;51.262;7.066;2023-05-23T15:02:49;18.20;;;3.78;;
24161;SDS011;12318;51.262;7.066;2023-05-23T15:05:15;11.93;;;3.55;;
24161;SDS011;12318;51.262;7.066;2023-05-23T15:07:41;14.15;;;3.58;;
24161;SDS011;12318;51.262;7.066;2023-05-23T15:10:08;16.67;;;3.70;;
24161;SDS011;12318;51.262;7.066;2023-05-23T15:12:34;14.57;;;4.28;;
24161;SDS011;12318;51.262;7.066;2023-05-23T15:15:00;15.13;;;3.83;;